createdAt,value
2023-01-08T00:01:15.402Z,21.13
2023-01-08T00:03:42.783Z,21.10
2023-01-08T00:06:12.950Z,21.16
2023-01-08T00:08:39.907Z,21.12
2023-01-08T00:11:06.978Z,21.11
2023-01-08T00:13:33.733Z,21.00
2023-01-08T00:16:09.873Z,21.15
2023-01-08T00:18:36.796Z,20.96
2023-01-08T00:21:04.277Z,21.12
2023-01-08T00:23:31.650Z,21.14
2023-01-08T00:26:02.257Z,21.02
2023-01-08T00:28:29.665Z,21.10
2023-01-08T00:30:56.415Z,21.14
2023-01-08T00:33:23.082Z,21.13
2023-01-08T00:35:49.932Z,21.06
2023-01-08T00:38:16.854Z,20.79
2023-01-08T00:40:43.469Z,21.14
2023-01-08T00:43:10.072Z,21.14
2023-01-08T00:45:36.862Z,21.14
2023-01-08T00:48:03.717Z,21.13
2023-01-08T00:50:30.305Z,21.01
2023-01-08T00:52:57.228Z,21.14
2023-01-08T00:55:23.890Z,20.95
2023-01-08T00:57:50.528Z,20.78
2023-01-08T01:00:17.350Z,20.86
2023-01-08T01:02:44.613Z,20.73
2023-01-08T01:05:15.462Z,21.13
2023-01-08T01:07:43.336Z,21.01
2023-01-08T01:10:11.879Z,21.13
2023-01-08T01:12:39.145Z,21.13
2023-01-08T01:15:08.520Z,21.11
2023-01-08T01:17:37.725Z,21.12
2023-01-08T01:20:05.170Z,20.93
2023-01-08T01:22:32.120Z,20.95
2023-01-08T01:24:58.959Z,21.11
2023-01-08T01:27:26.340Z,20.99
2023-01-08T01:29:53.769Z,21.07
2023-01-08T01:32:20.645Z,21.10
2023-01-08T01:34:47.255Z,21.03
2023-01-08T01:37:14.703Z,20.87
2023-01-08T01:39:46.633Z,20.93
2023-01-08T01:42:37.076Z,21.09
2023-01-08T01:45:16.708Z,21.08
2023-01-08T01:47:47.768Z,21.07
2023-01-08T01:50:18.187Z,21.07
2023-01-08T01:52:50.982Z,21.06
2023-01-08T01:55:18.650Z,21.06
2023-01-08T01:57:52.783Z,21.01
2023-01-08T02:00:20.256Z,21.05
2023-01-08T02:02:46.822Z,21.05
2023-01-08T02:05:13.673Z,21.01
2023-01-08T02:07:52.564Z,21.05
2023-01-08T02:10:37.088Z,21.04
2023-01-08T02:13:26.434Z,19.95
2023-01-08T02:16:05.405Z,21.01
2023-01-08T02:18:46.502Z,21.01
2023-01-08T02:22:43.053Z,21.00
2023-01-08T02:25:40.700Z,20.99
2023-01-08T02:28:11.592Z,20.88
2023-01-08T02:30:38.638Z,20.97
2023-01-08T02:33:05.321Z,20.97
2023-01-08T02:35:39.742Z,20.97
2023-01-08T02:38:06.770Z,20.96
2023-01-08T02:40:42.227Z,20.97
2023-01-08T02:43:21.724Z,20.96
2023-01-08T02:45:57.219Z,20.96
2023-01-08T02:48:47.605Z,20.95
2023-01-08T02:51:20.523Z,20.94
2023-01-08T02:53:51.080Z,20.94
2023-01-08T02:56:26.283Z,20.94
2023-01-08T02:58:54.197Z,20.89
2023-01-08T03:01:24.309Z,20.75
2023-01-08T03:03:58.244Z,20.88
2023-01-08T03:06:26.494Z,20.83
2023-01-08T03:08:54.066Z,20.87
2023-01-08T03:11:23.695Z,20.71
2023-01-08T03:14:05.361Z,20.90
2023-01-08T03:16:41.973Z,20.89
2023-01-08T03:19:15.394Z,20.79
2023-01-08T03:21:44.553Z,20.87
2023-01-08T03:24:14.981Z,20.77
2023-01-08T03:26:44.800Z,20.87
2023-01-08T03:29:14.987Z,20.86
2023-01-08T03:31:44.027Z,20.59
2023-01-08T03:34:12.276Z,20.53
2023-01-08T03:36:44.105Z,20.85
2023-01-08T03:39:26.378Z,20.85
2023-01-08T03:41:59.502Z,20.62
2023-01-08T03:44:26.286Z,20.84
2023-01-08T03:46:55.465Z,20.83
2023-01-08T03:49:24.803Z,20.73
2023-01-08T03:51:51.433Z,20.77
2023-01-08T03:54:23.666Z,20.82
2023-01-08T03:56:50.209Z,20.81
2023-01-08T03:59:17.539Z,20.82
2023-01-08T04:01:44.497Z,20.75
2023-01-08T04:04:11.976Z,20.71
2023-01-08T04:06:38.717Z,20.53
2023-01-08T04:09:05.271Z,20.73
2023-01-08T04:11:32.076Z,20.78
2023-01-08T04:13:58.838Z,20.73
2023-01-08T04:16:25.681Z,20.54
2023-01-08T04:18:52.207Z,20.70
2023-01-08T04:21:18.910Z,20.71
2023-01-08T04:23:45.641Z,20.57
2023-01-08T04:26:12.324Z,20.66
2023-01-08T04:28:39.659Z,20.51
2023-01-08T04:31:10.106Z,20.74
2023-01-08T04:33:37.021Z,20.72
2023-01-08T04:36:04.743Z,20.73
2023-01-08T04:38:31.463Z,20.72
2023-01-08T04:41:02.312Z,20.73
2023-01-08T04:43:30.112Z,20.72
2023-01-08T04:46:07.596Z,20.71
2023-01-08T04:48:34.804Z,20.71
2023-01-08T04:51:03.184Z,20.60
2023-01-08T04:53:32.995Z,20.62
2023-01-08T04:56:08.677Z,20.68
2023-01-08T04:58:36.645Z,20.70
2023-01-08T05:01:29.707Z,20.68
2023-01-08T05:03:59.296Z,20.67
2023-01-08T05:06:26.778Z,20.61
2023-01-08T05:08:53.534Z,20.67
2023-01-08T05:11:20.572Z,20.57
2023-01-08T05:13:51.670Z,20.64
2023-01-08T05:16:18.704Z,20.66
2023-01-08T05:18:45.675Z,20.66
2023-01-08T05:21:13.755Z,20.62
2023-01-08T05:23:40.663Z,20.66
2023-01-08T05:26:07.670Z,20.65
2023-01-08T05:28:34.933Z,20.53
2023-01-08T05:31:01.677Z,20.44
2023-01-08T05:33:28.430Z,20.64
2023-01-08T05:35:55.049Z,20.50
2023-01-08T05:38:21.707Z,20.47
2023-01-08T05:40:48.386Z,20.61
2023-01-08T05:43:14.936Z,20.25
2023-01-08T05:45:41.659Z,20.40
2023-01-08T05:48:08.509Z,20.59
2023-01-08T05:50:35.897Z,20.47
2023-01-08T05:55:12.939Z,20.37
2023-01-08T05:57:39.591Z,20.58
2023-01-08T06:00:11.581Z,20.54
2023-01-08T06:02:38.655Z,20.53
2023-01-08T06:05:05.539Z,20.29
2023-01-08T06:07:32.243Z,20.55
2023-01-08T06:09:58.789Z,20.57
2023-01-08T06:12:25.320Z,20.54
2023-01-08T06:14:51.921Z,20.56
2023-01-08T06:17:18.575Z,20.53
2023-01-08T06:19:47.319Z,20.48
2023-01-08T06:22:14.219Z,20.47
2023-01-08T06:24:40.782Z,20.44
2023-01-08T06:27:07.494Z,20.35
2023-01-08T06:29:34.146Z,20.51
2023-01-08T06:32:00.878Z,20.45
2023-01-08T06:34:27.399Z,20.40
2023-01-08T06:36:54.144Z,20.38
2023-01-08T06:39:20.780Z,20.49
2023-01-08T06:41:47.491Z,20.51
2023-01-08T06:44:14.147Z,20.50
2023-01-08T06:46:40.974Z,20.50
2023-01-08T06:49:08.047Z,20.45
2023-01-08T06:51:35.046Z,20.50
2023-01-08T06:54:02.259Z,20.49
2023-01-08T06:56:28.915Z,20.44
2023-01-08T06:58:55.541Z,20.45
2023-01-08T07:01:23.096Z,20.45
2023-01-08T07:03:49.849Z,20.24
2023-01-08T07:06:19.150Z,20.39
2023-01-08T07:08:46.435Z,20.45
2023-01-08T07:11:14.124Z,20.39
2023-01-08T07:13:40.693Z,20.29
2023-01-08T07:16:12.867Z,20.48
2023-01-08T07:18:40.080Z,20.40
2023-01-08T07:21:08.243Z,20.25
2023-01-08T07:23:35.632Z,20.40
2023-01-08T07:26:03.509Z,20.34
2023-01-08T07:28:30.660Z,20.46
2023-01-08T07:30:57.319Z,20.39
2023-01-08T07:33:24.073Z,20.14
2023-01-08T07:35:55.251Z,20.33
2023-01-08T07:38:22.758Z,20.24
2023-01-08T07:40:52.368Z,20.45
2023-01-08T07:43:19.077Z,20.42
2023-01-08T07:45:46.042Z,20.40
2023-01-08T07:48:16.462Z,20.46
2023-01-08T07:50:44.475Z,20.45
2023-01-08T07:53:12.940Z,20.37
2023-01-08T07:55:39.799Z,20.42
2023-01-08T07:58:13.839Z,20.46
2023-01-08T08:00:41.282Z,20.37
2023-01-08T08:03:11.626Z,20.31
2023-01-08T08:05:39.019Z,20.36
2023-01-08T08:08:12.701Z,20.36
2023-01-08T08:10:40.333Z,20.38
2023-01-08T08:13:07.462Z,20.39
2023-01-08T08:15:35.819Z,20.46
2023-01-08T08:18:02.921Z,20.46
2023-01-08T08:20:29.884Z,20.38
2023-01-08T08:23:14.363Z,20.48
2023-01-08T08:25:42.819Z,20.40
2023-01-08T08:28:11.559Z,20.13
2023-01-08T08:30:42.008Z,20.47
2023-01-08T08:33:10.210Z,20.49
2023-01-08T08:35:37.701Z,20.49
2023-01-08T08:38:05.022Z,20.38
2023-01-08T08:40:31.891Z,20.28
2023-01-08T08:43:01.101Z,20.49
2023-01-08T08:45:28.529Z,20.50
2023-01-08T08:47:55.802Z,20.50
2023-01-08T08:50:22.716Z,20.51
2023-01-08T08:52:49.431Z,20.35
2023-01-08T08:55:17.245Z,20.47
2023-01-08T08:57:45.493Z,20.49
2023-01-08T09:00:13.616Z,20.48
2023-01-08T09:02:40.437Z,20.47
2023-01-08T09:05:07.412Z,20.41
2023-01-08T09:07:34.198Z,20.44
2023-01-08T09:10:00.782Z,20.54
2023-01-08T09:12:27.487Z,20.54
2023-01-08T09:14:54.917Z,20.49
2023-01-08T09:17:21.741Z,20.49
2023-01-08T09:19:48.563Z,20.54
2023-01-08T09:22:15.243Z,20.56
2023-01-08T09:24:41.749Z,20.45
2023-01-08T09:27:11.241Z,20.44
2023-01-08T09:29:37.928Z,20.57
2023-01-08T09:32:08.500Z,20.42
2023-01-08T09:34:38.620Z,20.57
2023-01-08T09:37:05.613Z,20.57
2023-01-08T09:39:32.350Z,20.50
2023-01-08T09:42:05.825Z,20.58
2023-01-08T09:44:42.124Z,20.51
2023-01-08T09:47:34.486Z,20.60
2023-01-08T09:50:05.049Z,20.46
2023-01-08T09:52:32.038Z,20.55
2023-01-08T09:55:00.392Z,20.60
2023-01-08T09:57:29.149Z,20.54
2023-01-08T09:59:55.817Z,20.61
2023-01-08T10:02:25.124Z,20.58
2023-01-08T10:04:56.790Z,20.61
2023-01-08T10:07:25.856Z,20.51
2023-01-08T10:09:53.604Z,20.62
2023-01-08T10:12:29.760Z,20.60
2023-01-08T10:15:03.379Z,20.60
2023-01-08T10:17:38.428Z,20.61
2023-01-08T10:20:13.780Z,20.60
2023-01-08T10:22:40.655Z,20.61
2023-01-08T10:25:13.461Z,20.57
2023-01-08T10:27:57.164Z,20.61
2023-01-08T10:30:34.359Z,20.61
2023-01-08T10:33:12.121Z,20.55
2023-01-08T10:35:41.649Z,20.62
2023-01-08T10:38:25.679Z,20.57
2023-01-08T10:40:52.738Z,20.55
2023-01-08T10:43:32.369Z,20.45
2023-01-08T10:46:02.851Z,20.63
2023-01-08T10:48:46.293Z,20.62
2023-01-08T10:51:20.136Z,19.74
2023-01-08T10:53:47.252Z,20.59
2023-01-08T10:56:21.745Z,20.65
2023-01-08T10:58:49.070Z,20.64
2023-01-08T11:01:23.376Z,20.65
2023-01-08T11:04:01.825Z,20.65
2023-01-08T11:06:36.229Z,20.66
2023-01-08T11:09:19.540Z,20.62
2023-01-08T11:11:46.174Z,20.62
2023-01-08T11:14:27.873Z,20.66
2023-01-08T11:16:55.297Z,20.56
2023-01-08T11:19:33.173Z,20.58
2023-01-08T11:22:18.758Z,20.58
2023-01-08T11:24:46.696Z,20.65
2023-01-08T11:27:13.172Z,20.66
2023-01-08T11:30:04.396Z,20.66
2023-01-08T11:32:52.791Z,20.67
2023-01-08T11:35:26.688Z,20.66
2023-01-08T11:37:59.612Z,20.63
2023-01-08T11:40:50.065Z,20.61
2023-01-08T11:43:50.927Z,20.67
2023-01-08T11:46:20.692Z,20.62
2023-01-08T11:48:54.886Z,20.66
2023-01-08T11:51:58.830Z,20.66
2023-01-08T11:54:59.639Z,20.67
2023-01-08T11:57:29.054Z,20.66
2023-01-08T12:00:17.385Z,20.66
2023-01-08T12:02:57.753Z,20.66
2023-01-08T12:05:36.625Z,20.66
2023-01-08T12:08:26.405Z,20.65
2023-01-08T12:10:53.027Z,20.65
2023-01-08T12:13:41.620Z,20.65
2023-01-08T12:16:17.124Z,20.67
2023-01-08T12:19:17.197Z,20.62
2023-01-08T12:22:01.474Z,20.40
2023-01-08T12:24:48.927Z,20.67
2023-01-08T12:27:29.814Z,20.67
2023-01-08T12:30:28.001Z,20.69
2023-01-08T12:33:17.436Z,20.69
2023-01-08T12:35:50.253Z,20.67
2023-01-08T12:38:38.020Z,20.62
2023-01-08T12:44:04.060Z,20.67
2023-01-08T12:46:34.263Z,20.70
2023-01-08T12:49:02.079Z,20.69
2023-01-08T12:51:32.574Z,20.69
2023-01-08T12:54:20.759Z,20.66
2023-01-08T12:57:04.427Z,20.66
2023-01-08T12:59:48.432Z,20.70
2023-01-08T13:02:33.612Z,20.70
2023-01-08T13:05:30.734Z,20.69
2023-01-08T13:08:05.258Z,20.36
2023-01-08T13:10:31.867Z,20.69
2023-01-08T13:13:01.855Z,20.51
2023-01-08T13:15:31.241Z,20.66
2023-01-08T13:18:16.839Z,20.62
2023-01-08T13:20:56.066Z,20.67
2023-01-08T13:23:28.050Z,20.67
2023-01-08T13:25:56.994Z,20.69
2023-01-08T13:28:35.621Z,20.69
2023-01-08T13:31:29.008Z,20.70
2023-01-08T13:33:55.986Z,20.70
2023-01-08T13:36:26.513Z,20.70
2023-01-08T13:39:06.100Z,20.70
2023-01-08T13:41:37.137Z,20.57
2023-01-08T13:44:05.346Z,20.72
2023-01-08T13:46:38.304Z,20.67
2023-01-08T13:49:08.107Z,20.64
2023-01-08T13:51:43.910Z,20.72
2023-01-08T13:54:14.018Z,20.67
2023-01-08T13:56:43.646Z,20.67
2023-01-08T13:59:31.771Z,20.70
2023-01-08T14:02:01.460Z,20.64
2023-01-08T14:04:29.066Z,20.58
2023-01-08T14:07:12.849Z,20.54
2023-01-08T14:09:39.639Z,20.62
2023-01-08T14:12:09.070Z,20.42
2023-01-08T14:14:39.077Z,20.67
2023-01-08T14:17:06.886Z,20.64
2023-01-08T14:19:33.896Z,20.67
2023-01-08T14:22:04.044Z,20.65
2023-01-08T14:24:30.867Z,20.64
2023-01-08T14:26:59.896Z,20.56
2023-01-08T14:29:34.553Z,20.62
2023-01-08T14:32:01.949Z,20.64
2023-01-08T14:34:32.257Z,20.63
2023-01-08T14:36:59.077Z,20.62
2023-01-08T14:39:33.523Z,20.60
2023-01-08T14:42:47.369Z,20.61
2023-01-08T14:45:20.485Z,20.60
2023-01-08T14:47:50.677Z,20.38
2023-01-08T14:50:33.817Z,20.57
2023-01-08T14:53:24.758Z,20.57
2023-01-08T14:55:53.685Z,20.55
2023-01-08T14:58:30.860Z,20.55
2023-01-08T15:01:02.321Z,20.55
2023-01-08T15:03:35.134Z,20.54
2023-01-08T15:06:01.951Z,20.54
2023-01-08T15:08:40.486Z,20.51
2023-01-08T15:11:19.321Z,20.52
2023-01-08T15:13:48.215Z,20.51
2023-01-08T15:16:30.737Z,20.51
2023-01-08T15:19:13.966Z,20.51
2023-01-08T15:21:47.379Z,19.55
2023-01-08T15:24:34.973Z,20.50
2023-01-08T15:27:09.782Z,20.52
2023-01-08T15:29:59.832Z,20.54
2023-01-08T15:32:34.083Z,20.54
2023-01-08T15:35:01.709Z,20.55
2023-01-08T15:37:28.283Z,20.53
2023-01-08T15:39:54.831Z,20.54
2023-01-08T15:42:47.622Z,20.55
2023-01-08T15:45:28.468Z,20.54
2023-01-08T15:47:55.507Z,20.42
2023-01-08T15:52:49.245Z,20.50
2023-01-08T15:55:19.715Z,20.54
2023-01-08T15:57:46.486Z,20.47
2023-01-08T16:00:15.074Z,20.49
2023-01-08T16:02:46.396Z,20.44
2023-01-08T16:05:14.435Z,20.54
2023-01-08T16:07:41.218Z,20.53
2023-01-08T16:12:28.394Z,20.53
2023-01-08T16:14:54.992Z,20.44
2023-01-08T16:17:22.696Z,20.53
2023-01-08T16:19:49.550Z,20.52
2023-01-08T16:22:16.816Z,20.51
2023-01-08T16:24:43.955Z,20.32
2023-01-08T16:27:10.778Z,20.50
2023-01-08T16:29:37.635Z,20.49
2023-01-08T16:32:04.499Z,20.42
2023-01-08T16:34:31.703Z,20.49
2023-01-08T16:36:58.277Z,20.48
2023-01-08T16:39:25.003Z,20.46
2023-01-08T16:41:51.650Z,20.47
2023-01-08T16:44:24.379Z,20.41
2023-01-08T16:46:52.423Z,20.46
2023-01-08T16:49:19.003Z,20.40
2023-01-08T16:51:45.723Z,20.42
2023-01-08T16:54:13.939Z,20.46
2023-01-08T16:56:40.683Z,20.42
2023-01-08T16:59:18.287Z,20.45
2023-01-08T17:01:49.623Z,20.33
2023-01-08T17:04:16.383Z,20.44
2023-01-08T17:06:43.046Z,20.39
2023-01-08T17:09:11.517Z,20.43
2023-01-08T17:11:38.711Z,20.43
2023-01-08T17:14:05.446Z,20.43
2023-01-08T17:16:32.156Z,20.42
2023-01-08T17:18:58.709Z,20.42
2023-01-08T17:21:25.439Z,20.35
2023-01-08T17:23:52.079Z,20.41
2023-01-08T17:26:21.100Z,20.36
2023-01-08T17:28:47.658Z,20.39
2023-01-08T17:31:20.064Z,20.34
2023-01-08T17:33:50.677Z,20.39
2023-01-08T17:36:27.661Z,20.39
2023-01-08T17:38:54.456Z,20.24
2023-01-08T17:41:41.248Z,20.38
2023-01-08T17:44:09.882Z,20.35
2023-01-08T17:46:39.689Z,20.35
2023-01-08T17:51:25.178Z,20.36
2023-01-08T17:53:51.857Z,20.37
2023-01-08T17:56:18.572Z,20.21
2023-01-08T17:58:45.913Z,20.25
2023-01-08T18:01:13.496Z,20.31
2023-01-08T18:03:40.205Z,20.30
2023-01-08T18:06:11.470Z,20.38
2023-01-08T18:08:38.908Z,20.39
2023-01-08T18:11:07.899Z,20.38
2023-01-08T18:13:35.102Z,20.26
2023-01-08T18:16:06.670Z,20.40
2023-01-08T18:20:45.356Z,20.43
2023-01-08T18:23:12.110Z,20.40
2023-01-08T18:25:41.508Z,20.43
2023-01-08T18:28:11.103Z,20.43
2023-01-08T18:30:37.916Z,20.36
2023-01-08T18:33:04.546Z,20.36
2023-01-08T18:35:32.605Z,20.42
2023-01-08T18:37:59.300Z,20.42
2023-01-08T18:40:26.005Z,20.35
2023-01-08T18:42:52.679Z,20.41
2023-01-08T18:45:19.667Z,20.36
2023-01-08T18:47:46.402Z,20.40
2023-01-08T18:50:13.279Z,20.27
2023-01-08T18:52:41.400Z,20.39
2023-01-08T18:55:08.438Z,20.35
2023-01-08T18:57:35.129Z,20.38
2023-01-08T19:00:03.523Z,20.34
2023-01-08T19:02:36.096Z,20.38
2023-01-08T19:05:03.036Z,20.38
2023-01-08T19:07:32.850Z,20.34
2023-01-08T19:10:01.216Z,20.36
2023-01-08T19:12:30.782Z,20.22
2023-01-08T19:15:04.036Z,20.25
2023-01-08T19:17:32.145Z,20.36
2023-01-08T19:19:59.123Z,20.25
2023-01-08T19:22:28.724Z,20.28
2023-01-08T19:24:56.441Z,20.34
2023-01-08T19:27:23.852Z,20.25
2023-01-08T19:29:53.385Z,20.33
2023-01-08T19:32:20.285Z,20.34
2023-01-08T19:34:47.205Z,20.15
2023-01-08T19:37:14.896Z,20.31
2023-01-08T19:39:41.547Z,20.34
2023-01-08T19:42:29.007Z,20.29
2023-01-08T19:44:56.366Z,20.34
2023-01-08T19:47:23.357Z,20.33
2023-01-08T19:49:50.284Z,20.34
2023-01-08T19:52:17.941Z,20.22
2023-01-08T19:54:45.690Z,20.35
2023-01-08T19:57:12.493Z,20.32
2023-01-08T19:59:39.222Z,20.34
2023-01-08T20:02:05.983Z,20.36
2023-01-08T20:04:36.039Z,20.37
2023-01-08T20:07:02.693Z,20.42
2023-01-08T20:09:29.480Z,20.36
2023-01-08T20:11:59.005Z,20.46
2023-01-08T20:14:25.624Z,20.42
2023-01-08T20:16:52.899Z,20.50
2023-01-08T20:19:19.686Z,20.58
2023-01-08T20:21:46.430Z,20.62
2023-01-08T20:26:36.120Z,20.67
2023-01-08T20:29:03.624Z,20.62
2023-01-08T20:31:31.295Z,20.71
2023-01-08T20:33:59.539Z,20.74
2023-01-08T20:36:33.353Z,20.67
2023-01-08T20:39:03.500Z,20.78
2023-01-08T20:41:33.457Z,20.76
2023-01-08T20:44:06.370Z,20.77
2023-01-08T20:46:35.653Z,20.86
2023-01-08T20:49:05.297Z,20.89
2023-01-08T20:51:33.753Z,20.91
2023-01-08T20:54:01.745Z,20.92
2023-01-08T20:56:35.393Z,20.94
2023-01-08T20:59:02.857Z,20.95
2023-01-08T21:01:36.667Z,20.99
2023-01-08T21:04:05.761Z,21.00
2023-01-08T21:06:34.191Z,20.99
2023-01-08T21:09:06.994Z,20.93
2023-01-08T21:11:35.849Z,20.92
2023-01-08T21:14:03.065Z,20.98
2023-01-08T21:16:31.032Z,20.96
2023-01-08T21:18:58.939Z,20.95
2023-01-08T21:21:34.810Z,20.94
2023-01-08T21:24:08.690Z,20.88
2023-01-08T21:26:39.571Z,20.94
2023-01-08T21:29:07.457Z,20.93
2023-01-08T21:31:36.213Z,20.85
2023-01-08T21:34:07.403Z,20.91
2023-01-08T21:36:34.282Z,20.91
2023-01-08T21:39:02.068Z,20.90
2023-01-08T21:41:48.532Z,20.83
2023-01-08T21:44:35.187Z,20.87
2023-01-08T21:47:03.644Z,20.87
2023-01-08T21:49:31.753Z,20.82
2023-01-08T21:52:17.404Z,20.76
2023-01-08T21:54:43.994Z,20.81
2023-01-08T21:57:10.760Z,20.73
2023-01-08T21:59:37.558Z,20.88
2023-01-08T22:02:05.372Z,20.91
2023-01-08T22:04:32.560Z,20.94
2023-01-08T22:06:59.253Z,20.88
2023-01-08T22:09:26.146Z,20.98
2023-01-08T22:11:56.065Z,21.00
2023-01-08T22:14:23.353Z,20.61
2023-01-08T22:16:52.662Z,21.01
2023-01-08T22:19:19.391Z,21.02
2023-01-08T22:21:46.201Z,21.08
2023-01-08T22:24:12.799Z,20.62
2023-01-08T22:26:39.297Z,20.97
2023-01-08T22:29:06.573Z,21.13
2023-01-08T22:31:34.081Z,21.05
2023-01-08T22:34:01.083Z,21.08
2023-01-08T22:36:27.871Z,21.10
2023-01-08T22:38:54.494Z,21.11
2023-01-08T22:41:23.242Z,21.24
2023-01-08T22:43:55.852Z,21.20
2023-01-08T22:46:23.861Z,21.26
2023-01-08T22:48:50.485Z,21.29
2023-01-08T22:51:17.580Z,21.30
2023-01-08T22:53:44.184Z,21.20
2023-01-08T22:56:14.872Z,21.29
2023-01-08T22:58:45.270Z,21.34
2023-01-08T23:01:18.064Z,21.06
2023-01-08T23:03:49.060Z,21.36
2023-01-08T23:06:17.321Z,21.08
2023-01-08T23:08:45.291Z,21.20
2023-01-08T23:11:13.992Z,21.08
2023-01-08T23:13:41.233Z,21.28
2023-01-08T23:16:09.894Z,21.41
2023-01-08T23:18:37.565Z,21.33
2023-01-08T23:21:07.032Z,21.30
2023-01-08T23:23:33.909Z,21.00
2023-01-08T23:26:10.345Z,21.45
2023-01-08T23:29:33.921Z,21.32
2023-01-08T23:32:00.852Z,21.47
2023-01-08T23:34:27.494Z,21.27
2023-01-08T23:36:54.182Z,21.24
2023-01-08T23:39:21.400Z,21.50
2023-01-08T23:41:48.004Z,21.50
2023-01-08T23:44:15.951Z,21.35
2023-01-08T23:46:42.895Z,21.16
2023-01-08T23:49:10.192Z,21.53
2023-01-08T23:51:37.566Z,21.27
2023-01-08T23:54:04.395Z,21.47
2023-01-08T23:56:31.702Z,21.54
2023-01-08T23:58:58.386Z,21.32
